Terminal Aerodrome Forecast
Issued by NWS

Home | Current Version | Previous Version | Text Only | Print | Product List | Glossary On
Versions: 1 2 3 4 5 6 7 8 9 10 11 12 13 14
000
FTUS45 KTFX 210500
TAFGTF
TAF
KGTF 210532Z 2106/2206 21013KT P6SM SCT080 OVC120
     FM210800 22018KT P6SM BKN080
     FM211200 23018KT P6SM VCSH BKN050
     FM212000 26022G30KT P6SM BKN080=

USA.gov is the U.S. government's official web portal to all federal, state and local government web resources and services.